createdAt,value
2018-01-13T00:01:21.334Z,7.20
2018-01-13T00:03:48.811Z,7.20
2018-01-13T00:06:17.053Z,7.10
2018-01-13T00:08:44.545Z,7.10
2018-01-13T00:11:12.787Z,7.10
2018-01-13T00:13:46.719Z,7.00
2018-01-13T00:16:15.101Z,7.00
2018-01-13T00:18:42.972Z,7.10
2018-01-13T00:21:11.436Z,7.20
2018-01-13T00:23:39.199Z,7.10
2018-01-13T00:26:06.923Z,7.30
2018-01-13T00:28:34.759Z,7.20
2018-01-13T00:31:03.115Z,7.00
2018-01-13T00:33:31.064Z,7.00
2018-01-13T00:35:58.533Z,7.10
2018-01-13T00:38:26.026Z,7.10
2018-01-13T00:40:54.334Z,7.30
2018-01-13T00:43:22.285Z,7.20
2018-01-13T00:45:50.540Z,7.20
2018-01-13T00:48:19.011Z,7.20
2018-01-13T00:50:46.907Z,7.20
2018-01-13T00:53:15.330Z,7.10
2018-01-13T00:55:43.245Z,7.00
2018-01-13T00:58:11.645Z,7.20
2018-01-13T01:00:39.295Z,7.10
2018-01-13T01:03:07.663Z,7.20
2018-01-13T01:05:35.431Z,7.10
2018-01-13T01:08:03.705Z,7.10
2018-01-13T01:10:32.192Z,7.20
2018-01-13T01:13:00.572Z,7.20
2018-01-13T01:15:29.131Z,7.10
2018-01-13T01:17:56.628Z,7.10
2018-01-13T01:20:24.859Z,7.10
2018-01-13T01:22:52.359Z,7.00
2018-01-13T01:25:20.600Z,7.00
2018-01-13T01:27:48.074Z,7.00
2018-01-13T01:30:15.575Z,7.00
2018-01-13T01:32:43.039Z,7.00
2018-01-13T01:35:10.509Z,7.00
2018-01-13T01:37:37.999Z,7.00
2018-01-13T01:40:05.466Z,7.00
2018-01-13T01:42:32.947Z,7.00
2018-01-13T01:45:01.209Z,7.00
2018-01-13T01:47:29.451Z,7.00
2018-01-13T01:49:56.916Z,6.90
2018-01-13T01:52:24.408Z,7.00
2018-01-13T01:54:52.649Z,7.10
2018-01-13T01:57:20.120Z,7.00
2018-01-13T01:59:47.612Z,7.00
2018-01-13T02:02:15.851Z,7.00
2018-01-13T02:04:43.323Z,6.90
2018-01-13T02:07:10.818Z,7.00
2018-01-13T02:09:38.294Z,7.00
2018-01-13T02:12:05.792Z,7.00
2018-01-13T02:14:33.295Z,6.90
2018-01-13T02:17:01.535Z,7.00
2018-01-13T02:19:29.010Z,6.90
2018-01-13T02:21:57.271Z,7.10
2018-01-13T02:24:24.745Z,7.00
2018-01-13T02:26:52.993Z,7.00
2018-01-13T02:29:20.490Z,7.00
2018-01-13T02:31:48.743Z,7.00
2018-01-13T02:34:16.221Z,6.90
2018-01-13T02:36:44.477Z,6.80
2018-01-13T02:39:11.976Z,6.80
2018-01-13T02:41:39.451Z,6.90
2018-01-13T02:44:06.944Z,7.00
2018-01-13T02:46:34.460Z,7.00
2018-01-13T02:49:01.936Z,6.90
2018-01-13T02:51:29.449Z,6.90
2018-01-13T02:53:57.688Z,7.10
2018-01-13T02:56:25.151Z,7.00
2018-01-13T02:58:52.649Z,7.00
2018-01-13T03:01:20.904Z,6.90
2018-01-13T03:03:48.375Z,6.90
2018-01-13T03:06:16.650Z,6.90
2018-01-13T03:08:44.115Z,6.80
2018-01-13T03:11:12.347Z,6.90
2018-01-13T03:13:39.844Z,6.80
2018-01-13T03:16:07.312Z,6.90
2018-01-13T03:18:35.552Z,6.90
2018-01-13T03:21:03.047Z,6.80
2018-01-13T03:23:31.281Z,6.90
2018-01-13T03:25:58.753Z,6.90
2018-01-13T03:28:26.248Z,7.00
2018-01-13T03:30:54.481Z,6.90
2018-01-13T03:33:21.962Z,6.80
2018-01-13T03:35:49.486Z,6.90
2018-01-13T03:38:16.965Z,6.90
2018-01-13T03:40:44.435Z,6.90
2018-01-13T03:43:11.927Z,7.00
2018-01-13T03:45:40.172Z,7.00
2018-01-13T03:48:07.652Z,6.90
2018-01-13T03:50:35.911Z,7.10
2018-01-13T03:53:03.396Z,7.00
2018-01-13T03:55:31.640Z,7.20
2018-01-13T03:57:59.156Z,7.10
2018-01-13T04:00:26.637Z,7.10
2018-01-13T04:02:54.120Z,7.10
2018-01-13T04:05:21.708Z,7.10
2018-01-13T04:07:49.949Z,7.10
2018-01-13T04:10:17.552Z,7.10
2018-01-13T04:12:45.820Z,7.00
2018-01-13T04:15:14.083Z,7.00
2018-01-13T04:17:41.564Z,7.00
2018-01-13T04:20:09.868Z,7.10
2018-01-13T04:22:37.348Z,7.10
2018-01-13T04:25:04.836Z,7.20
2018-01-13T04:27:32.324Z,7.20
2018-01-13T04:29:59.798Z,7.20
2018-01-13T04:32:27.285Z,7.20
2018-01-13T04:34:54.779Z,7.20
2018-01-13T04:37:23.041Z,7.10
2018-01-13T04:39:50.521Z,7.00
2018-01-13T04:42:18.791Z,7.00
2018-01-13T04:44:47.032Z,7.00
2018-01-13T04:47:14.530Z,6.90
2018-01-13T04:49:42.788Z,7.20
2018-01-13T04:52:10.266Z,7.10
2018-01-13T04:54:38.500Z,7.20
2018-01-13T04:57:06.003Z,7.20
2018-01-13T04:59:34.264Z,7.30
2018-01-13T05:02:01.735Z,7.20
2018-01-13T05:04:30.006Z,7.30
2018-01-13T05:06:57.484Z,7.30
2018-01-13T05:09:25.743Z,7.30
2018-01-13T05:11:53.244Z,7.20
2018-01-13T05:14:20.724Z,7.30
2018-01-13T05:16:48.199Z,7.30
2018-01-13T05:19:15.684Z,7.30
2018-01-13T05:21:44.103Z,7.20
2018-01-13T05:24:11.605Z,7.20
2018-01-13T05:26:39.129Z,7.30
2018-01-13T05:29:06.603Z,7.30
2018-01-13T05:31:34.073Z,7.30
2018-01-13T05:34:01.586Z,7.30
2018-01-13T05:36:29.055Z,7.40
2018-01-13T05:38:56.523Z,7.70
2018-01-13T05:41:24.043Z,7.90
2018-01-13T05:43:52.281Z,7.70
2018-01-13T05:46:19.757Z,7.60
2018-01-13T05:48:48.044Z,7.60
2018-01-13T05:51:15.518Z,7.60
2018-01-13T05:53:43.754Z,7.60
2018-01-13T05:56:11.241Z,7.60
2018-01-13T05:58:38.741Z,7.60
2018-01-13T06:01:06.220Z,7.70
2018-01-13T06:03:33.737Z,7.70
2018-01-13T06:06:01.967Z,7.60
2018-01-13T06:08:29.452Z,7.60
2018-01-13T06:10:57.698Z,7.80
2018-01-13T06:13:25.171Z,7.70
2018-01-13T06:15:52.644Z,7.70
2018-01-13T06:18:20.939Z,7.60
2018-01-13T06:20:49.179Z,7.50
2018-01-13T06:23:16.657Z,7.50
2018-01-13T06:25:44.916Z,7.60
2018-01-13T06:28:12.394Z,7.50
2018-01-13T06:30:39.903Z,7.70
2018-01-13T06:33:07.411Z,7.60
2018-01-13T06:35:34.881Z,7.60
2018-01-13T06:38:03.123Z,7.70
2018-01-13T06:40:30.642Z,7.70
2018-01-13T06:42:58.115Z,7.70
2018-01-13T06:45:25.596Z,8.20
2018-01-13T06:47:53.092Z,8.20
2018-01-13T06:50:21.326Z,7.90
2018-01-13T06:52:48.808Z,7.90
2018-01-13T06:55:16.397Z,7.80
2018-01-13T06:57:44.662Z,7.90
2018-01-13T07:00:12.901Z,8.10
2018-01-13T07:02:40.398Z,8.10
2018-01-13T07:05:08.635Z,8.10
2018-01-13T07:07:36.110Z,8.00
2018-01-13T07:10:03.600Z,8.10
2018-01-13T07:12:31.839Z,8.30
2018-01-13T07:14:59.320Z,8.20
2018-01-13T07:17:26.850Z,8.20
2018-01-13T07:19:54.326Z,8.10
2018-01-13T07:22:21.796Z,8.20
2018-01-13T07:24:49.284Z,8.70
2018-01-13T07:27:16.791Z,8.60
2018-01-13T07:29:44.280Z,8.40
2018-01-13T07:32:11.768Z,8.20
2018-01-13T07:34:39.240Z,8.20
2018-01-13T07:37:06.720Z,8.00
2018-01-13T07:39:34.208Z,7.90
2018-01-13T07:42:01.690Z,7.80
2018-01-13T07:44:29.927Z,8.00
2018-01-13T07:46:57.432Z,8.00
2018-01-13T07:49:24.956Z,7.90
2018-01-13T07:51:53.205Z,8.20
2018-01-13T07:54:20.701Z,8.20
2018-01-13T07:56:48.176Z,8.20
2018-01-13T07:59:16.412Z,8.10
2018-01-13T08:01:43.967Z,8.10
2018-01-13T08:04:11.445Z,7.80
2018-01-13T08:06:38.933Z,7.50
2018-01-13T08:09:07.197Z,7.40
2018-01-13T08:11:35.445Z,7.30
2018-01-13T08:14:02.916Z,7.30
2018-01-13T08:16:30.522Z,7.30
2018-01-13T08:18:58.779Z,7.30
2018-01-13T08:21:26.236Z,7.30
2018-01-13T08:23:54.500Z,7.40
2018-01-13T08:26:21.979Z,7.30
2018-01-13T08:28:50.216Z,7.60
2018-01-13T08:31:17.906Z,7.50
2018-01-13T08:33:45.409Z,7.60
2018-01-13T08:36:12.872Z,7.50
2018-01-13T08:38:40.372Z,7.40
2018-01-13T08:41:07.955Z,7.50
2018-01-13T08:43:35.456Z,7.50
2018-01-13T08:46:02.949Z,7.60
2018-01-13T08:48:30.420Z,7.50
2018-01-13T08:50:58.664Z,7.50
2018-01-13T08:53:26.155Z,7.40
2018-01-13T08:55:54.405Z,7.50
2018-01-13T08:58:21.872Z,7.50
2018-01-13T09:00:49.360Z,7.60
2018-01-13T09:03:17.606Z,7.70
2018-01-13T09:05:45.128Z,7.60
2018-01-13T09:08:12.616Z,7.70
2018-01-13T09:10:40.088Z,7.60
2018-01-13T09:13:07.561Z,7.60
2018-01-13T09:15:35.056Z,7.60
2018-01-13T09:18:02.528Z,7.70
2018-01-13T09:20:30.003Z,7.70
2018-01-13T09:22:57.511Z,7.70
2018-01-13T09:25:25.786Z,7.80
2018-01-13T09:27:54.024Z,7.80
2018-01-13T09:30:21.512Z,7.80
2018-01-13T09:32:49.756Z,7.90
2018-01-13T09:35:17.295Z,7.80
2018-01-13T09:37:44.792Z,7.90
2018-01-13T09:40:12.269Z,7.80
2018-01-13T09:42:40.502Z,7.80
2018-01-13T09:45:07.993Z,7.80
2018-01-13T09:47:35.473Z,7.80
2018-01-13T09:50:03.709Z,7.90
2018-01-13T09:52:31.258Z,7.90
2018-01-13T09:54:58.740Z,7.90
2018-01-13T09:57:26.232Z,8.00
2018-01-13T09:59:53.760Z,8.00
2018-01-13T10:02:21.227Z,8.00
2018-01-13T10:04:48.699Z,8.10
2018-01-13T10:07:16.952Z,8.10
2018-01-13T10:09:44.466Z,8.10
2018-01-13T10:12:11.951Z,8.10
2018-01-13T10:14:39.449Z,8.20
2018-01-13T10:17:07.699Z,8.20
2018-01-13T10:19:35.200Z,8.20
2018-01-13T10:22:03.463Z,8.30
2018-01-13T10:24:31.702Z,8.40
2018-01-13T10:26:59.176Z,8.30
2018-01-13T10:29:26.670Z,8.30
2018-01-13T10:31:54.914Z,8.30
2018-01-13T10:34:22.388Z,8.20
2018-01-13T10:36:49.880Z,8.30
2018-01-13T10:39:17.428Z,8.30
2018-01-13T10:41:44.918Z,8.20
2018-01-13T10:44:12.406Z,8.30
2018-01-13T10:46:39.887Z,8.30
2018-01-13T10:49:08.290Z,8.40
2018-01-13T10:51:35.795Z,8.40
2018-01-13T10:54:03.263Z,8.40
2018-01-13T10:56:30.737Z,8.30
2018-01-13T10:58:58.223Z,8.30
2018-01-13T11:01:25.692Z,8.30
2018-01-13T11:03:53.172Z,8.40
2018-01-13T11:06:20.670Z,8.40
2018-01-13T11:08:48.240Z,8.50
2018-01-13T11:11:16.485Z,8.40
2018-01-13T11:13:44.026Z,8.40
2018-01-13T11:16:11.497Z,8.40
2018-01-13T11:18:38.979Z,8.40
2018-01-13T11:21:06.492Z,8.40
2018-01-13T11:23:33.967Z,8.40
2018-01-13T11:26:01.432Z,8.40
2018-01-13T11:28:28.928Z,8.40
2018-01-13T11:30:57.169Z,8.50
2018-01-13T11:33:24.675Z,8.50
2018-01-13T11:35:52.962Z,8.50
2018-01-13T11:38:20.427Z,8.40
2018-01-13T11:40:47.928Z,8.40
2018-01-13T11:43:15.427Z,8.40
2018-01-13T11:45:43.691Z,8.30
2018-01-13T11:48:11.204Z,8.30
2018-01-13T11:50:38.721Z,8.30
2018-01-13T11:53:06.970Z,8.40
2018-01-13T11:55:34.494Z,8.40
2018-01-13T11:58:02.015Z,8.40
2018-01-13T12:00:30.265Z,8.40
2018-01-13T12:02:57.756Z,8.30
2018-01-13T12:05:26.020Z,8.40
2018-01-13T12:07:53.492Z,8.30
2018-01-13T12:10:21.736Z,8.40
2018-01-13T12:12:49.241Z,8.40
2018-01-13T12:15:17.480Z,8.40
2018-01-13T12:17:45.068Z,8.40
2018-01-13T12:20:13.367Z,8.30
2018-01-13T12:22:40.839Z,8.30
2018-01-13T12:25:08.311Z,8.30
2018-01-13T12:27:35.876Z,8.50
2018-01-13T12:30:03.352Z,8.40
2018-01-13T12:32:30.973Z,8.50
2018-01-13T12:34:58.479Z,8.40
2018-01-13T12:37:26.805Z,8.50
2018-01-13T12:39:54.324Z,8.40
2018-01-13T12:42:22.617Z,8.40
2018-01-13T12:44:50.906Z,8.40
2018-01-13T12:47:19.199Z,8.50
2018-01-13T12:49:46.716Z,8.40
2018-01-13T12:52:14.247Z,8.50
2018-01-13T12:54:41.723Z,8.50
2018-01-13T12:57:09.239Z,8.50
2018-01-13T12:59:36.732Z,8.60
2018-01-13T13:02:04.312Z,8.60
2018-01-13T13:04:31.940Z,8.70
2018-01-13T13:06:59.568Z,8.70
2018-01-13T13:09:27.808Z,8.80
2018-01-13T13:11:55.317Z,8.70
2018-01-13T13:14:22.897Z,8.80
2018-01-13T13:16:50.367Z,8.80
2018-01-13T13:19:17.871Z,8.80
2018-01-13T13:21:46.148Z,8.80
2018-01-13T13:24:13.623Z,8.70
2018-01-13T13:26:41.328Z,8.80
2018-01-13T13:29:08.983Z,8.70
2018-01-13T13:31:36.455Z,8.70
2018-01-13T13:34:04.132Z,8.70
2018-01-13T13:36:31.602Z,8.80
2018-01-13T13:38:59.124Z,8.70
2018-01-13T13:41:26.629Z,8.70
2018-01-13T13:43:54.864Z,8.70
2018-01-13T13:46:22.336Z,8.70
2018-01-13T13:48:49.827Z,8.70
2018-01-13T13:51:18.081Z,8.70
2018-01-13T13:53:45.547Z,8.70
2018-01-13T13:56:13.055Z,8.80
2018-01-13T13:58:40.548Z,8.80
2018-01-13T14:01:28.433Z,8.70
2018-01-13T14:03:36.405Z,8.80
2018-01-13T14:06:03.888Z,8.70
2018-01-13T14:08:32.217Z,8.70
2018-01-13T14:10:59.709Z,8.70
2018-01-13T14:13:27.230Z,8.70
2018-01-13T14:15:54.702Z,8.70
2018-01-13T14:18:22.193Z,8.70
2018-01-13T14:20:50.440Z,8.60
2018-01-13T14:23:17.909Z,8.60
2018-01-13T14:25:45.404Z,8.70
2018-01-13T14:28:12.880Z,8.70
2018-01-13T14:30:41.200Z,8.70
2018-01-13T14:33:08.728Z,8.70
2018-01-13T14:35:36.210Z,8.60
2018-01-13T14:38:03.708Z,8.60
2018-01-13T14:40:31.972Z,8.60
2018-01-13T14:43:19.277Z,8.60
2018-01-13T14:45:46.772Z,8.60
2018-01-13T14:48:15.013Z,8.60
2018-01-13T14:50:42.617Z,8.60
2018-01-13T14:53:10.114Z,8.60
2018-01-13T14:55:37.591Z,8.70
2018-01-13T14:58:05.064Z,8.60
2018-01-13T15:00:32.549Z,8.70
2018-01-13T15:03:00.803Z,8.60
2018-01-13T15:05:28.404Z,8.60
2018-01-13T15:07:55.898Z,8.60
2018-01-13T15:10:23.380Z,8.60
2018-01-13T15:12:52.380Z,8.60
2018-01-13T15:15:20.650Z,8.60
2018-01-13T15:17:48.133Z,8.60
2018-01-13T15:20:16.363Z,8.60
2018-01-13T15:22:43.860Z,8.60
2018-01-13T15:25:12.125Z,8.60
2018-01-13T15:27:39.593Z,8.50
2018-01-13T15:30:07.866Z,8.60
2018-01-13T15:32:36.156Z,8.60
2018-01-13T15:35:04.397Z,8.60
2018-01-13T15:37:31.887Z,8.50
2018-01-13T15:40:00.192Z,8.60
2018-01-13T15:42:27.679Z,8.50
2018-01-13T15:45:01.097Z,8.60
2018-01-13T15:47:29.367Z,8.60
2018-01-13T15:49:58.428Z,8.50
2018-01-13T15:52:25.923Z,8.50
2018-01-13T15:54:53.472Z,8.50
2018-01-13T15:57:20.971Z,8.50
2018-01-13T15:59:49.235Z,8.40
2018-01-13T16:02:16.716Z,8.40
2018-01-13T16:04:44.960Z,8.40
2018-01-13T16:07:12.480Z,8.40
2018-01-13T16:09:39.962Z,8.40
2018-01-13T16:12:07.453Z,8.40
2018-01-13T16:14:35.731Z,8.40
2018-01-13T16:17:03.972Z,8.30
2018-01-13T16:19:31.444Z,8.30
2018-01-13T16:22:00.451Z,8.30
2018-01-13T16:24:27.923Z,8.30
2018-01-13T16:26:56.171Z,8.30
2018-01-13T16:29:23.659Z,8.30
2018-01-13T16:31:51.171Z,8.30
2018-01-13T16:34:18.643Z,8.30
2018-01-13T16:36:46.177Z,8.30
2018-01-13T16:39:13.648Z,8.30
2018-01-13T16:41:41.129Z,8.20
2018-01-13T16:44:08.622Z,8.20
2018-01-13T16:46:36.867Z,8.10
2018-01-13T16:49:04.341Z,8.10
2018-01-13T16:51:32.645Z,8.10
2018-01-13T16:54:00.886Z,8.10
2018-01-13T16:56:28.364Z,8.10
2018-01-13T16:58:56.636Z,8.10
2018-01-13T17:01:24.888Z,8.10
2018-01-13T17:03:52.372Z,8.00
2018-01-13T17:06:20.647Z,8.10
2018-01-13T17:08:48.924Z,8.00
2018-01-13T17:11:17.176Z,8.10
2018-01-13T17:13:44.672Z,8.00
2018-01-13T17:16:12.959Z,8.00
2018-01-13T17:18:41.192Z,8.00
2018-01-13T17:21:08.697Z,8.00
2018-01-13T17:23:36.943Z,8.00
2018-01-13T17:26:04.424Z,7.90
2018-01-13T17:28:32.735Z,8.00
2018-01-13T17:31:00.226Z,7.90
2018-01-13T17:33:27.700Z,7.90
2018-01-13T17:35:55.212Z,8.00
2018-01-13T17:38:22.696Z,8.00
2018-01-13T17:40:50.217Z,8.10
2018-01-13T17:43:17.709Z,8.10
2018-01-13T17:45:45.188Z,8.00
2018-01-13T17:48:12.752Z,8.00
2018-01-13T17:50:40.247Z,8.00
2018-01-13T17:53:07.744Z,7.90
2018-01-13T17:55:35.232Z,7.90
2018-01-13T17:58:02.739Z,7.90
2018-01-13T18:00:30.221Z,7.80
2018-01-13T18:02:57.762Z,7.80
2018-01-13T18:05:25.290Z,7.80
2018-01-13T18:07:52.782Z,7.90
2018-01-13T18:10:20.282Z,7.90
2018-01-13T18:12:47.820Z,7.80
2018-01-13T18:15:15.328Z,7.80
2018-01-13T18:17:43.596Z,7.70
2018-01-13T18:20:12.011Z,7.80
2018-01-13T18:22:39.503Z,7.70
2018-01-13T18:25:06.991Z,7.80
2018-01-13T18:27:35.244Z,7.90
2018-01-13T18:30:02.724Z,7.90
2018-01-13T18:32:30.199Z,7.90
2018-01-13T18:34:58.652Z,7.60
2018-01-13T18:37:26.133Z,7.60
2018-01-13T18:39:54.376Z,7.50
2018-01-13T18:42:21.916Z,7.50
2018-01-13T18:44:49.417Z,7.50
2018-01-13T18:47:16.923Z,7.50
2018-01-13T18:49:44.424Z,7.50
2018-01-13T18:52:11.911Z,7.40
2018-01-13T18:54:40.202Z,7.30
2018-01-13T18:57:07.695Z,7.30
2018-01-13T18:59:35.238Z,7.30
2018-01-13T19:02:02.712Z,7.50
2018-01-13T19:04:30.204Z,7.60
2018-01-13T19:06:57.676Z,7.50
2018-01-13T19:09:25.916Z,7.30
2018-01-13T19:11:54.300Z,7.30
2018-01-13T19:14:21.768Z,7.40
2018-01-13T19:16:49.240Z,7.40
2018-01-13T19:19:16.740Z,7.50
2018-01-13T19:21:44.216Z,7.40
2018-01-13T19:24:11.692Z,7.40
2018-01-13T19:26:39.218Z,7.30
2018-01-13T19:29:06.741Z,7.40
2018-01-13T19:31:35.004Z,7.40
2018-01-13T19:34:03.416Z,7.30
2018-01-13T19:36:31.656Z,7.30
2018-01-13T19:38:59.138Z,7.30
2018-01-13T19:41:27.406Z,7.30
2018-01-13T19:43:54.893Z,7.30
2018-01-13T19:46:23.149Z,7.30
2018-01-13T19:48:50.645Z,7.20
2018-01-13T19:51:18.154Z,7.30
2018-01-13T19:53:45.638Z,7.30
2018-01-13T19:56:13.907Z,7.30
2018-01-13T19:58:42.159Z,7.30
2018-01-13T20:01:09.647Z,7.20
2018-01-13T20:03:37.903Z,7.30
2018-01-13T20:06:05.380Z,7.30
2018-01-13T20:08:33.617Z,7.40
2018-01-13T20:11:01.139Z,7.30
2018-01-13T20:13:28.633Z,7.30
2018-01-13T20:15:56.125Z,7.40
2018-01-13T20:18:23.652Z,7.50
2018-01-13T20:20:51.144Z,7.50
2018-01-13T20:23:19.404Z,7.30
2018-01-13T20:25:46.908Z,7.30
2018-01-13T20:28:15.147Z,7.30
2018-01-13T20:30:42.631Z,7.20
2018-01-13T20:33:10.926Z,7.30
2018-01-13T20:35:38.374Z,7.30
2018-01-13T20:38:06.619Z,7.40
2018-01-13T20:40:34.108Z,7.40
2018-01-13T20:43:02.349Z,7.30
2018-01-13T20:45:29.832Z,7.30
2018-01-13T20:47:58.103Z,7.30
2018-01-13T20:50:25.579Z,7.20
2018-01-13T20:52:53.101Z,7.20
2018-01-13T20:55:20.594Z,7.30
2018-01-13T20:57:48.940Z,7.30
2018-01-13T21:00:16.433Z,7.30
2018-01-13T21:02:44.696Z,7.30
2018-01-13T21:05:12.169Z,7.30
2018-01-13T21:07:40.576Z,7.40
2018-01-13T21:10:08.092Z,7.30
2018-01-13T21:12:35.569Z,7.30
2018-01-13T21:15:03.835Z,7.30
2018-01-13T21:17:32.104Z,7.30
2018-01-13T21:19:59.589Z,7.20
2018-01-13T21:22:27.872Z,7.30
2018-01-13T21:24:55.425Z,7.30
2018-01-13T21:27:22.908Z,7.40
2018-01-13T21:29:50.399Z,7.40
2018-01-13T21:32:17.891Z,7.40
2018-01-13T21:34:46.132Z,7.50
2018-01-13T21:37:13.601Z,7.40
2018-01-13T21:39:41.091Z,7.40
2018-01-13T21:42:09.340Z,7.40
2018-01-13T21:44:36.816Z,7.30
2018-01-13T21:47:05.087Z,7.50
2018-01-13T21:49:32.556Z,7.40
2018-01-13T21:52:00.812Z,7.40
2018-01-13T21:54:28.337Z,7.30
2018-01-13T21:56:55.820Z,7.50
2018-01-13T21:59:23.291Z,7.50
2018-01-13T22:01:50.779Z,7.50
2018-01-13T22:04:19.039Z,7.40
2018-01-13T22:06:46.540Z,7.30
2018-01-13T22:09:14.034Z,7.40
2018-01-13T22:11:41.538Z,7.40
2018-01-13T22:14:09.788Z,7.50
2018-01-13T22:16:37.453Z,7.40
2018-01-13T22:19:05.722Z,7.40
2018-01-13T22:21:33.227Z,7.40
2018-01-13T22:24:00.735Z,7.50
2018-01-13T22:26:28.205Z,7.40
2018-01-13T22:28:55.764Z,7.50
2018-01-13T22:31:23.264Z,7.50
2018-01-13T22:33:50.732Z,7.50
2018-01-13T22:36:18.203Z,7.50
2018-01-13T22:38:45.716Z,7.60
2018-01-13T22:41:13.960Z,7.80
2018-01-13T22:43:41.510Z,7.80
2018-01-13T22:46:09.012Z,7.70
2018-01-13T22:48:37.252Z,7.60
2018-01-13T22:51:04.804Z,7.50
2018-01-13T22:53:32.286Z,7.60
2018-01-13T22:55:59.770Z,7.60
2018-01-13T22:58:28.019Z,7.60
2018-01-13T23:00:55.500Z,7.60
2018-01-13T23:03:23.754Z,7.60
2018-01-13T23:05:51.229Z,7.50
2018-01-13T23:08:18.716Z,7.70
2018-01-13T23:10:46.206Z,7.70
2018-01-13T23:13:13.719Z,7.70
2018-01-13T23:15:41.253Z,7.70
2018-01-13T23:18:08.731Z,7.60
2018-01-13T23:20:36.978Z,7.70
2018-01-13T23:23:04.466Z,7.60
2018-01-13T23:25:32.716Z,7.80
2018-01-13T23:28:00.207Z,7.80
2018-01-13T23:30:28.465Z,7.80
2018-01-13T23:32:55.938Z,7.80
2018-01-13T23:35:24.174Z,7.70
2018-01-13T23:37:51.685Z,7.60
2018-01-13T23:40:19.930Z,7.70
2018-01-13T23:42:47.401Z,7.60
2018-01-13T23:45:14.898Z,7.80
2018-01-13T23:47:42.376Z,7.80
2018-01-13T23:50:09.858Z,7.80
2018-01-13T23:52:37.376Z,7.80
2018-01-13T23:55:04.866Z,7.90
2018-01-13T23:57:32.339Z,7.90
2018-01-13T23:59:59.837Z,8.50
